Aeroporto :
LOGIN :

Iscrizione | Disclaimer

   EN    FR    IT 

 










Sommario :    VFR   VFR Marginale   IFR   IFR Intensivo   IFR Molto Intensivo
Visibilità : 
Base nubi : 
>= 8 km
>= 3000ft
5 / 8 km
1000 / 3000 ft
1500m / 5 km
500 / 1000 ft
800 / 1500m
200 / 500 ft
< 800m
< 200 ft
Simboli :   Temporali  Nebbia  Neve Forte  Precipitazioni Forti  Vento > 20 kt
SIGMETs :   Varie  Temporali  Ghiacco  Turbolenza  Onda orograficha  Ceneri Vulcaniche







- Altitudine del aeroporto : 768 ft
- Codice IATA : MXP


LIMC - Milano Malpensa

ULTIMO METAR :
  • 201250Z 17004KT 090V230 CAVOK 13/05 Q1024 NOSIG

METARs OBSOLETI :
  • 201220Z 14004KT 100V200 CAVOK 12/05 Q1024 NOSIG
  • 201150Z 14004KT 110V220 CAVOK 12/05 Q1024 NOSIG
  • 201120Z 18003KT 120V220 CAVOK 11/05 Q1025 NOSIG
  • 201050Z VRB02KT CAVOK 10/05 Q1025 NOSIG
  • 201020Z VRB02KT 8000 NSC 09/05 Q1025 NOSIG

TAF TAF LIMC
Valido dal 20 a 12 ore il 21 a 18 ore UTC


201100Z 2012/2118 VRB05KT 8000 NSC
TEMPO 2102/2108 2000 BCFG
Nessun NOTAM noto per questo aeroporto.



MetMap, La meteo Aeronautica in un colpo d'occhio ! - Copyright ORBIFLY Dicembre 2007 - Disclaimer

ORBIFLY MET'MAP TEAM :

Programmazione e sviluppo : Alexandra Zaïnal
Concezione e sviluppo : Baudouin d'Aumeries
Co-Programmazione e sviluppo : Marc-Olivier Méhu
Supporto tecnico e logistico : Manuel Goepfert
Aiuto per la traduzione : Arnaldo La Scala

Contatto : metmap@orbifly.com




FONTI E CREDITI :

   NOAA